Time;durP1;ratioP1;P1;durP2;ratioP2;P2;SDS_P1;SDS_P2;PMS_P1;PMS_P2;Temp;Humidity;BMP_temperature;BMP_pressure;BME280_temperature;BME280_humidity;BME280_pressure;Samples;Min_cycle;Max_cycle;Signal;HPM_P1;HPM_P2
2021/01/01 00:01:47;;;;;;;8.95;6.28;;;;;;;1.41;97.47;98578.50;1770952;81;21520;-62
2021/01/01 00:04:14;;;;;;;7.37;6.03;;;;;;;1.42;97.54;98575.52;1769817;81;21145;-64
2021/01/01 00:06:46;;;;;;;6.87;5.85;;;;;;;1.43;97.59;98579.77;1770440;81;21101;-61
2021/01/01 00:09:15;;;;;;;6.20;5.17;;;;;;;1.45;97.56;98578.91;1770128;81;21494;-62
2021/01/01 00:11:45;;;;;;;7.65;5.55;;;;;;;1.45;97.63;98575.06;1770689;81;21518;-61
2021/01/01 00:14:13;;;;;;;5.30;4.53;;;;;;;1.45;97.55;98571.66;1748897;81;21140;-62
2021/01/01 00:16:41;;;;;;;5.78;4.95;;;;;;;1.45;97.53;98571.23;1769994;81;21109;-61
2021/01/01 00:19:09;;;;;;;6.62;5.75;;;;;;;1.46;97.56;98579.75;1770427;81;21145;-61
2021/01/01 00:21:37;;;;;;;8.00;6.30;;;;;;;1.48;97.65;98583.14;1770693;81;21593;-61
2021/01/01 00:24:07;;;;;;;8.40;6.15;;;;;;;1.49;97.68;98584.84;1770676;81;21388;-62
2021/01/01 00:26:35;;;;;;;7.40;5.50;;;;;;;1.50;97.77;98583.97;1770372;81;21562;-61
2021/01/01 00:29:03;;;;;;;5.83;5.22;;;;;;;1.53;97.86;98582.24;1770936;80;21061;-61
2021/01/01 00:31:31;;;;;;;8.28;5.80;;;;;;;1.55;97.64;98587.34;1770719;81;21073;-61
2021/01/01 00:33:59;;;;;;;6.42;5.17;;;;;;;1.56;97.71;98585.20;1771030;80;21117;-61
2021/01/01 00:36:27;;;;;;;7.37;6.28;;;;;;;1.59;97.73;98581.34;1770824;81;21195;-62
2021/01/01 00:38:55;;;;;;;6.00;5.12;;;;;;;1.60;97.73;98583.03;1771046;81;21086;-61
2021/01/01 00:41:31;;;;;;;6.03;4.85;;;;;;;1.63;97.78;98582.98;1770944;81;21058;-61
2021/01/01 00:43:59;;;;;;;6.42;5.20;;;;;;;1.65;97.57;98586.38;1764140;80;21580;-62
2021/01/01 00:46:27;;;;;;;6.15;5.10;;;;;;;1.64;97.53;98582.97;1768385;81;21166;-62
2021/01/01 00:48:58;;;;;;;6.10;5.50;;;;;;;1.63;97.35;98581.70;1770222;81;21244;-62
2021/01/01 00:51:29;;;;;;;6.42;4.40;;;;;;;1.58;97.30;98576.62;1770810;81;21156;-62
2021/01/01 00:53:57;;;;;;;4.97;4.40;;;;;;;1.57;97.46;98573.64;1771081;81;21145;-62
2021/01/01 00:56:26;;;;;;;6.62;5.05;;;;;;;1.57;97.49;98574.08;1770966;81;21523;-62
2021/01/01 00:58:55;;;;;;;5.10;4.42;;;;;;;1.58;97.63;98568.09;1769968;81;21157;-62
2021/01/01 01:01:25;;;;;;;4.97;4.47;;;;;;;1.60;97.59;98574.06;1769734;81;21675;-62
2021/01/01 01:03:54;;;;;;;4.95;4.10;;;;;;;1.60;97.55;98568.52;1770540;80;21566;-63
2021/01/01 01:06:22;;;;;;;4.90;3.98;;;;;;;1.59;97.51;98569.38;1770517;81;21086;-63
2021/01/01 01:08:50;;;;;;;4.35;3.75;;;;;;;1.59;97.57;98567.25;1769921;81;21180;-63
2021/01/01 01:11:26;;;;;;;4.45;4.05;;;;;;;1.61;97.61;98562.95;1765041;80;21113;-62
2021/01/01 01:13:54;;;;;;;5.35;3.98;;;;;;;1.62;97.64;98568.05;1770045;80;22241;-62
2021/01/01 01:16:25;;;;;;;4.20;3.80;;;;;;;1.63;97.54;98572.74;1770005;81;21157;-63
2021/01/01 01:18:53;;;;;;;4.00;3.60;;;;;;;1.62;97.52;98563.36;1771067;81;21082;-63
2021/01/01 01:21:21;;;;;;;4.25;3.87;;;;;;;1.63;97.35;98567.19;1770871;81;21082;-63
2021/01/01 01:23:50;;;;;;;4.15;3.50;;;;;;;1.59;97.21;98564.69;1770930;81;21132;-62
2021/01/01 01:26:19;;;;;;;4.33;3.87;;;;;;;1.58;97.41;98564.25;1770909;80;21405;-62
2021/01/01 01:28:47;;;;;;;4.12;3.72;;;;;;;1.58;97.42;98566.80;1770916;81;21196;-62
2021/01/01 01:31:16;;;;;;;4.20;3.80;;;;;;;1.54;97.31;98570.28;1771013;81;21180;-61
2021/01/01 01:33:44;;;;;;;4.10;3.70;;;;;;;1.51;97.29;98569.02;1770890;81;21113;-62
2021/01/01 01:36:13;;;;;;;4.37;3.98;;;;;;;1.48;97.41;98577.59;1771034;81;21157;-62
2021/01/01 01:38:41;;;;;;;4.25;3.80;;;;;;;1.46;97.41;98578.48;1770704;81;21188;-62
2021/01/01 01:41:09;;;;;;;5.17;4.35;;;;;;;1.43;97.51;98579.33;1770754;81;21129;-61
2021/01/01 01:43:37;;;;;;;4.08;3.50;;;;;;;1.43;97.65;98570.80;1770816;81;21144;-62
2021/01/01 01:46:04;;;;;;;3.95;3.50;;;;;;;1.43;97.71;98578.48;1771021;81;21074;-61
2021/01/01 01:48:36;;;;;;;3.50;3.20;;;;;;;1.42;97.67;98576.80;1771011;81;21084;-61
2021/01/01 01:51:08;;;;;;;4.37;3.67;;;;;;;1.38;97.68;98579.39;1771087;81;22030;-62
2021/01/01 01:53:42;;;;;;;3.67;3.33;;;;;;;1.32;97.75;98573.05;1771027;81;21180;-62
2021/01/01 01:56:11;;;;;;;3.42;3.12;;;;;;;1.34;97.94;98576.86;1771124;81;21125;-62
2021/01/01 01:58:41;;;;;;;3.65;3.35;;;;;;;1.33;98.00;98585.41;1771001;81;21117;-62
2021/01/01 02:01:08;;;;;;;3.85;3.25;;;;;;;1.30;97.97;98583.73;1771212;81;21156;-62
2021/01/01 02:03:37;;;;;;;3.30;3.00;;;;;;;1.30;98.21;98579.05;1771112;81;21379;-62
2021/01/01 02:06:05;;;;;;;4.17;3.55;;;;;;;1.30;98.29;98588.02;1771076;80;21101;-62
2021/01/01 02:08:34;;;;;;;4.05;3.62;;;;;;;1.32;98.45;98585.00;1770998;81;21149;-62
2021/01/01 02:11:03;;;;;;;4.70;3.52;;;;;;;1.34;98.48;98583.27;1771088;81;21523;-63
2021/01/01 02:13:32;;;;;;;4.37;3.60;;;;;;;1.33;98.43;98581.14;1771016;81;21141;-62
2021/01/01 02:15:59;;;;;;;3.67;3.17;;;;;;;1.34;98.48;98587.11;1771138;81;21179;-62
2021/01/01 02:18:40;;;;;;;3.40;3.10;;;;;;;1.36;98.65;98584.09;1746044;81;21562;-62
2021/01/01 02:21:11;;;;;;;3.33;2.87;;;;;;;1.38;98.66;98583.67;1769385;80;21133;-62
2021/01/01 02:23:39;;;;;;;3.60;3.05;;;;;;;1.38;98.64;98584.52;1770951;81;21113;-62
2021/01/01 02:26:07;;;;;;;3.20;2.90;;;;;;;1.36;98.56;98591.77;1771153;81;21133;-62
2021/01/01 02:28:36;;;;;;;3.30;3.00;;;;;;;1.35;98.62;98587.09;1785548;80;22184;-63
2021/01/01 02:31:05;;;;;;;3.33;3.00;;;;;;;1.38;98.81;98589.64;1787582;80;21073;-63
2021/01/01 02:33:33;;;;;;;4.08;3.20;;;;;;;1.41;98.75;98591.75;1787487;80;21641;-62
2021/01/01 02:36:01;;;;;;;4.50;3.60;;;;;;;1.41;98.83;98593.88;1787386;80;21077;-62
2021/01/01 02:38:29;;;;;;;3.12;2.85;;;;;;;1.44;98.84;98591.73;1787522;80;21140;-62
2021/01/01 02:40:57;;;;;;;2.80;2.58;;;;;;;1.44;98.63;98593.02;1787577;80;21199;-62
2021/01/01 02:43:25;;;;;;;3.25;2.95;;;;;;;1.43;98.65;98595.98;1787599;80;21080;-62
2021/01/01 02:45:52;;;;;;;3.25;2.87;;;;;;;1.45;98.79;98594.28;1787266;80;21105;-61
2021/01/01 02:48:20;;;;;;;4.87;3.83;;;;;;;1.46;98.67;98594.69;1787545;80;21120;-61
2021/01/01 02:50:50;;;;;;;6.28;4.70;;;;;;;1.44;98.56;98593.02;1787461;80;21164;-61
2021/01/01 02:53:18;;;;;;;5.15;3.58;;;;;;;1.38;98.55;98598.60;1787665;80;21205;-61
2021/01/01 02:55:48;;;;;;;7.70;5.12;;;;;;;1.36;98.54;98597.77;1787463;80;21184;-61
2021/01/01 02:58:16;;;;;;;4.60;3.27;;;;;;;1.34;98.67;98591.80;1787311;80;21068;-61
2021/01/01 03:00:47;;;;;;;5.37;3.12;;;;;;;1.34;98.76;98590.95;1787445;80;21077;-61
2021/01/01 03:03:17;;;;;;;3.42;3.12;;;;;;;1.34;98.73;98594.79;1787742;80;21056;-62
2021/01/01 03:05:45;;;;;;;3.37;3.05;;;;;;;1.30;98.67;98590.58;1787420;80;21374;-60
2021/01/01 03:08:13;;;;;;;3.08;2.85;;;;;;;1.28;98.73;98584.16;1787519;80;21073;-61
2021/01/01 03:10:41;;;;;;;3.05;2.75;;;;;;;1.30;98.79;98582.89;1787598;80;21112;-61
2021/01/01 03:13:08;;;;;;;3.22;2.92;;;;;;;1.29;98.73;98582.48;1787660;80;21145;-61
2021/01/01 03:15:37;;;;;;;3.42;3.12;;;;;;;1.26;98.71;98583.34;1787469;80;21117;-61
2021/01/01 03:18:05;;;;;;;3.10;2.80;;;;;;;1.23;98.77;98583.37;1787648;80;21203;-61
2021/01/01 03:20:33;;;;;;;3.17;2.87;;;;;;;1.20;98.84;98575.70;1787189;80;21066;-62
2021/01/01 03:23:01;;;;;;;2.90;2.67;;;;;;;1.20;98.90;98573.58;1787631;80;21056;-61
2021/01/01 03:25:29;;;;;;;3.15;2.85;;;;;;;1.19;98.85;98577.00;1787438;80;21120;-63
2021/01/01 03:27:57;;;;;;;3.22;3.00;;;;;;;1.15;98.85;98574.91;1793175;79;21593;-61
2021/01/01 03:30:25;;;;;;;4.37;2.85;;;;;;;1.12;98.81;98580.04;1798987;79;21368;-61
2021/01/01 03:32:53;;;;;;;5.72;2.55;;;;;;;1.09;98.90;98578.80;1798845;79;21139;-61
2021/01/01 03:35:21;;;;;;;3.30;3.00;;;;;;;1.09;98.96;98580.08;1799001;79;21066;-61
2021/01/01 03:37:49;;;;;;;2.85;2.65;;;;;;;1.06;98.91;98580.96;1798747;79;21434;-61
2021/01/01 03:40:17;;;;;;;3.47;3.10;;;;;;;1.04;99.06;98577.98;1799106;79;21151;-61
2021/01/01 03:42:44;;;;;;;3.92;3.47;;;;;;;1.04;99.19;98581.38;1798729;79;21288;-61
2021/01/01 03:45:14;;;;;;;3.55;3.25;;;;;;;1.04;99.28;98577.98;1798833;79;22975;-61
2021/01/01 03:47:42;;;;;;;10.68;3.70;;;;;;;1.08;99.35;98578.39;1798880;79;21053;-61
2021/01/01 03:50:10;;;;;;;4.45;3.83;;;;;;;1.07;99.23;98579.25;1798921;79;21136;-62
2021/01/01 03:52:38;;;;;;;5.10;4.37;;;;;;;1.08;99.22;98575.39;1798925;79;21172;-61
2021/01/01 03:55:07;;;;;;;4.90;3.72;;;;;;;1.10;99.31;98574.09;1798949;79;21199;-61
2021/01/01 03:57:35;;;;;;;5.42;4.20;;;;;;;1.13;99.41;98574.48;1798876;79;21123;-63
2021/01/01 04:00:09;;;;;;;4.87;4.37;;;;;;;1.14;99.39;98569.38;1798795;79;21073;-61
2021/01/01 04:02:40;;;;;;;4.25;3.85;;;;;;;1.15;99.21;98571.51;1798742;79;21135;-61
2021/01/01 04:05:09;;;;;;;4.45;4.03;;;;;;;1.15;99.21;98576.63;1798887;79;21132;-62
2021/01/01 04:07:37;;;;;;;4.72;4.20;;;;;;;1.14;99.30;98570.66;1799010;79;21366;-62
2021/01/01 04:10:08;;;;;;;3.75;3.40;;;;;;;1.15;99.29;98567.23;1799013;79;21088;-61
2021/01/01 04:12:36;;;;;;;4.20;3.77;;;;;;;1.19;99.31;98570.17;1798932;79;21049;-62
2021/01/01 04:15:05;;;;;;;4.30;3.90;;;;;;;1.18;99.09;98572.75;1798885;79;21069;-61
2021/01/01 04:17:34;;;;;;;4.28;3.77;;;;;;;1.16;99.07;98572.77;1799003;79;21501;-62
2021/01/01 04:20:04;;;;;;;4.10;3.70;;;;;;;1.14;99.04;98571.94;1799042;79;21197;-62
2021/01/01 04:22:31;;;;;;;4.03;3.62;;;;;;;1.12;99.15;98574.92;1798838;79;21486;-64
2021/01/01 04:24:59;;;;;;;4.25;3.85;;;;;;;1.10;99.26;98566.41;1799046;79;21100;-62
2021/01/01 04:27:27;;;;;;;3.87;3.42;;;;;;;1.06;99.28;98574.56;1768911;78;21143;-62
2021/01/01 04:29:55;;;;;;;3.58;3.27;;;;;;;1.02;99.37;98569.47;1739512;82;21144;-62
2021/01/01 04:32:23;;;;;;;3.40;3.10;;;;;;;1.00;99.48;98569.92;1739572;82;21206;-62
2021/01/01 04:34:51;;;;;;;3.55;3.25;;;;;;;0.99;99.57;98572.91;1739421;81;21180;-62
2021/01/01 04:37:18;;;;;;;3.58;3.27;;;;;;;0.98;99.71;98576.34;1739589;82;21164;-62
2021/01/01 04:39:47;;;;;;;4.15;3.12;;;;;;;1.01;99.89;98575.45;1739392;81;21167;-62
2021/01/01 04:42:15;;;;;;;3.45;3.15;;;;;;;1.02;99.88;98573.31;1739807;81;21042;-61
2021/01/01 04:44:43;;;;;;;3.25;2.98;;;;;;;1.02;99.96;98569.03;1719683;82;21202;-62
2021/01/01 04:47:11;;;;;;;2.85;2.60;;;;;;;1.05;99.88;98578.39;1740442;82;21155;-61
2021/01/01 04:49:39;;;;;;;3.00;2.70;;;;;;;1.05;99.97;98577.95;1719738;82;21092;-62
2021/01/01 04:52:08;;;;;;;3.20;2.90;;;;;;;1.04;99.85;98578.83;1719715;82;21132;-62
2021/01/01 04:54:36;;;;;;;3.02;2.72;;;;;;;1.02;99.91;98575.44;1740355;82;21929;-63
2021/01/01 04:57:04;;;;;;;3.40;3.00;;;;;;;1.02;100.00;98583.55;1696229;82;21399;-62
2021/01/01 04:59:32;;;;;;;2.80;2.60;;;;;;;1.00;100.00;98586.56;1740430;82;21077;-62
2021/01/01 05:02:01;;;;;;;3.30;3.00;;;;;;;1.01;100.00;98585.69;1740419;82;21123;-62
2021/01/01 05:04:29;;;;;;;2.83;2.55;;;;;;;1.02;100.00;98588.66;1740500;82;21092;-63
2021/01/01 05:06:56;;;;;;;3.00;2.77;;;;;;;1.05;100.00;98593.75;1740284;82;21155;-62
2021/01/01 05:09:25;;;;;;;2.67;2.47;;;;;;;1.03;100.00;98593.77;1740342;82;21412;-62
2021/01/01 05:12:09;;;;;;;3.92;2.70;;;;;;;1.06;100.00;98592.91;1719905;82;21072;-62
2021/01/01 05:14:38;;;;;;;4.28;2.85;;;;;;;1.07;100.00;98599.73;1740288;82;21133;-62
2021/01/01 05:17:06;;;;;;;3.25;2.95;;;;;;;1.09;100.00;98604.39;1740452;82;21077;-62
2021/01/01 05:19:41;;;;;;;3.12;2.80;;;;;;;1.09;100.00;98602.69;1740551;81;21061;-61
2021/01/01 05:22:12;;;;;;;2.67;2.47;;;;;;;1.11;100.00;98602.66;1740400;82;21373;-62
2021/01/01 05:24:44;;;;;;;2.55;2.35;;;;;;;1.14;100.00;98614.17;1740265;82;21096;-62
2021/01/01 05:27:17;;;;;;;3.20;2.90;;;;;;;1.15;100.00;98618.43;1740673;82;21041;-61
2021/01/01 05:29:59;;;;;;;2.80;2.60;;;;;;;1.18;100.00;98622.23;1740476;82;21040;-61
2021/01/01 05:32:29;;;;;;;2.80;2.60;;;;;;;1.21;100.00;98619.67;1740668;82;21117;-61
2021/01/01 05:34:57;;;;;;;2.50;2.30;;;;;;;1.23;100.00;98623.49;1740332;82;21461;-61
2021/01/01 05:37:33;;;;;;;3.72;3.15;;;;;;;1.23;100.00;98625.62;1740453;81;21045;-61
2021/01/01 05:40:10;;;;;;;2.98;2.67;;;;;;;1.24;100.00;98626.47;1740613;81;21093;-61
2021/01/01 05:42:38;;;;;;;4.03;2.90;;;;;;;1.28;100.00;98631.96;1740443;82;21133;-62
2021/01/01 05:45:17;;;;;;;3.90;3.00;;;;;;;1.32;100.00;98637.06;1740523;82;21056;-61
2021/01/01 05:48:06;;;;;;;3.17;2.80;;;;;;;1.35;100.00;98636.17;1740127;81;21209;-61
2021/01/01 05:50:35;;;;;;;3.50;2.98;;;;;;;1.41;100.00;98638.69;1740522;82;21481;-61
2021/01/01 05:53:17;;;;;;;3.70;2.92;;;;;;;1.46;100.00;98643.78;1740543;82;21088;-61
2021/01/01 05:55:47;;;;;;;4.30;3.50;;;;;;;1.52;100.00;98645.02;1740416;82;21096;-61
2021/01/01 05:58:26;;;;;;;4.03;3.60;;;;;;;1.54;100.00;98644.13;1740536;81;21057;-61
2021/01/01 06:00:56;;;;;;;4.12;3.72;;;;;;;1.57;100.00;98643.24;1740426;82;21377;-61
2021/01/01 06:03:35;;;;;;;3.90;3.50;;;;;;;1.59;100.00;98644.95;1740155;82;21128;-62
2021/01/01 06:06:06;;;;;;;3.77;3.27;;;;;;;1.60;100.00;98641.52;1740381;82;21586;-61
2021/01/01 06:08:35;;;;;;;4.62;3.67;;;;;;;1.60;100.00;98650.48;1740458;82;21101;-62
2021/01/01 06:11:06;;;;;;;4.62;4.12;;;;;;;1.61;100.00;98645.77;1740428;82;21163;-61
2021/01/01 06:13:35;;;;;;;5.70;4.60;;;;;;;1.62;100.00;98650.03;1740612;82;22162;-61
2021/01/01 06:16:05;;;;;;;5.08;4.37;;;;;;;1.66;100.00;98649.55;1740592;81;21096;-61
2021/01/01 06:18:34;;;;;;;6.35;5.12;;;;;;;1.69;100.00;98649.98;1740559;81;21050;-61
2021/01/01 06:21:06;;;;;;;6.05;4.90;;;;;;;1.73;100.00;98653.76;1740430;82;21545;-61
2021/01/01 06:23:38;;;;;;;7.40;5.78;;;;;;;1.77;100.00;98656.73;1740257;82;21053;-62
2021/01/01 06:26:07;;;;;;;8.65;6.00;;;;;;;1.80;100.00;98655.41;1740532;82;21374;-62
2021/01/01 06:28:38;;;;;;;7.55;6.08;;;;;;;1.83;100.00;98667.36;1740455;82;21065;-62
2021/01/01 06:31:06;;;;;;;8.80;6.08;;;;;;;1.85;100.00;98663.91;1739651;82;21108;-62
2021/01/01 06:33:35;;;;;;;9.50;7.22;;;;;;;1.87;100.00;98669.01;1740601;81;21037;-62
2021/01/01 06:36:04;;;;;;;11.68;7.00;;;;;;;1.86;100.00;98677.56;1740400;81;21457;-62
2021/01/01 06:38:41;;;;;;;10.70;7.58;;;;;;;1.86;100.00;98666.87;1740584;81;21363;-62
2021/01/01 06:41:14;;;;;;;12.00;8.15;;;;;;;1.89;100.00;98663.02;1740527;81;21176;-62
2021/01/01 06:43:49;;;;;;;14.53;7.97;;;;;;;1.94;100.00;98666.37;1740562;81;21467;-64
2021/01/01 06:46:38;;;;;;;11.95;8.38;;;;;;;1.98;100.00;98664.64;1740646;81;21597;-62
2021/01/01 06:49:09;;;;;;;13.88;9.20;;;;;;;2.00;100.00;98671.03;1740233;82;21147;-62
2021/01/01 06:51:37;;;;;;;12.98;9.20;;;;;;;2.00;100.00;98671.03;1737928;82;21339;-62
2021/01/01 06:54:12;;;;;;;15.55;10.48;;;;;;;2.01;100.00;98672.72;1719856;82;21104;-62
2021/01/01 06:56:43;;;;;;;13.88;8.90;;;;;;;2.03;100.00;98676.95;1740262;82;21155;-63
2021/01/01 06:59:14;;;;;;;15.18;9.90;;;;;;;2.04;100.00;98680.36;1740607;82;21470;-61
2021/01/01 07:01:44;;;;;;;13.93;9.28;;;;;;;2.03;100.00;98683.36;1740504;82;21032;-62
2021/01/01 07:04:12;;;;;;;13.70;9.70;;;;;;;2.04;100.00;98688.05;1740531;82;21268;-62
2021/01/01 07:06:41;;;;;;;17.73;11.78;;;;;;;2.03;100.00;98687.64;1740363;82;21128;-62
2021/01/01 07:09:10;;;;;;;17.00;10.03;;;;;;;2.01;100.00;98690.66;1740549;82;21120;-62
2021/01/01 07:11:40;;;;;;;15.65;10.82;;;;;;;2.01;100.00;98699.64;1740369;82;21172;-62
2021/01/01 07:14:12;;;;;;;15.43;11.05;;;;;;;2.01;100.00;98695.79;1740525;82;21116;-61
2021/01/01 07:16:50;;;;;;;17.42;10.40;;;;;;;2.02;100.00;98703.89;1740388;82;21384;-63
2021/01/01 07:19:17;;;;;;;19.15;11.25;;;;;;;2.01;100.00;98694.51;1740546;82;21152;-62
2021/01/01 07:21:45;;;;;;;19.85;11.18;;;;;;;2.02;100.00;98701.33;1725002;83;21081;-63
2021/01/01 07:24:13;;;;;;;19.32;11.00;;;;;;;2.02;100.00;98703.45;1764339;81;21465;-62
2021/01/01 07:26:41;;;;;;;19.27;12.10;;;;;;;2.05;100.00;98701.32;1725073;83;21161;-61
2021/01/01 07:29:09;;;;;;;19.57;12.00;;;;;;;2.06;100.00;98708.14;1763352;79;21482;-62
2021/01/01 07:31:37;;;;;;;21.75;12.98;;;;;;;2.09;100.00;98710.66;1764287;81;21132;-61
2021/01/01 07:34:09;;;;;;;22.93;13.10;;;;;;;2.09;100.00;98715.36;1764044;81;21934;-61
2021/01/01 07:36:37;;;;;;;24.47;13.83;;;;;;;2.09;100.00;98714.51;1725017;83;21175;-62
2021/01/01 07:39:06;;;;;;;21.75;12.50;;;;;;;2.10;100.00;98714.92;1764232;81;21393;-63
2021/01/01 07:41:35;;;;;;;23.80;14.10;;;;;;;2.10;100.00;98712.36;1764297;81;21469;-62
2021/01/01 07:44:04;;;;;;;24.40;15.10;;;;;;;2.08;100.00;98724.34;1724909;83;21101;-63
2021/01/01 07:46:33;;;;;;;20.72;13.40;;;;;;;2.03;100.00;98719.69;1764300;81;21473;-62
2021/01/01 07:49:01;;;;;;;30.27;15.98;;;;;;;2.01;100.00;98725.27;1764162;81;21556;-62
2021/01/01 07:51:30;;;;;;;25.08;14.80;;;;;;;1.97;100.00;98726.18;1764335;81;21544;-62
2021/01/01 07:54:01;;;;;;;22.30;14.07;;;;;;;1.94;100.00;98724.04;1721646;83;21386;-62
2021/01/01 07:56:30;;;;;;;24.52;14.58;;;;;;;1.97;100.00;98723.61;1764384;81;21102;-62
2021/01/01 07:58:58;;;;;;;23.55;13.72;;;;;;;2.00;100.00;98724.42;1764247;81;21143;-62
2021/01/01 08:01:25;;;;;;;23.47;14.23;;;;;;;2.00;100.00;98724.42;1710406;81;21068;-62
2021/01/01 08:03:54;;;;;;;25.27;14.33;;;;;;;2.02;100.00;98723.13;1764145;81;21028;-63
2021/01/01 08:06:21;;;;;;;23.42;14.10;;;;;;;2.04;100.00;98723.55;1764134;81;21361;-62
2021/01/01 08:08:50;;;;;;;23.25;13.93;;;;;;;2.06;100.00;98726.09;1764021;81;21119;-63
2021/01/01 08:11:19;;;;;;;23.07;14.40;;;;;;;2.06;100.00;98726.09;1724997;83;21160;-62
2021/01/01 08:13:47;;;;;;;20.88;12.80;;;;;;;2.07;100.00;98723.94;1764200;81;21056;-63
2021/01/01 08:16:16;;;;;;;26.73;15.13;;;;;;;2.07;100.00;98727.78;1764318;81;21540;-63
2021/01/01 08:18:44;;;;;;;24.92;14.40;;;;;;;2.09;100.00;98729.89;1724943;83;21455;-62
2021/01/01 08:21:12;;;;;;;30.37;16.48;;;;;;;2.12;100.00;98732.44;1764204;81;21108;-62
2021/01/01 08:24:03;;;;;;;25.05;15.58;;;;;;;2.13;100.00;98731.58;1724962;83;21133;-64
2021/01/01 08:26:34;;;;;;;24.23;14.40;;;;;;;2.17;100.00;98739.63;1764273;81;21079;-63
2021/01/01 08:29:02;;;;;;;23.75;15.55;;;;;;;2.18;100.00;98741.33;1764043;81;21031;-63
2021/01/01 08:31:31;;;;;;;27.00;16.42;;;;;;;2.18;100.00;98742.17;1734900;81;21376;-63
2021/01/01 08:33:59;;;;;;;25.43;15.75;;;;;;;2.15;100.00;98749.91;1760265;81;21197;-63
2021/01/01 08:36:33;;;;;;;21.25;14.40;;;;;;;2.12;100.00;98743.98;1734960;81;21193;-62
2021/01/01 08:39:11;;;;;;;25.92;15.20;;;;;;;2.10;100.00;98754.22;1760272;81;21162;-61
2021/01/01 08:41:45;;;;;;;25.08;14.95;;;;;;;2.10;100.00;98757.22;1760395;81;21125;-61
2021/01/01 08:44:14;;;;;;;24.40;15.20;;;;;;;2.11;100.00;98758.48;1760136;81;21223;-61
2021/01/01 08:46:42;;;;;;;23.27;15.48;;;;;;;2.13;100.00;98757.21;1733650;81;21092;-62
2021/01/01 08:49:21;;;;;;;29.50;18.87;;;;;;;2.15;100.00;98770.86;1767462;81;21290;-62
2021/01/01 08:51:49;;;;;;;28.80;17.32;;;;;;;2.14;100.00;98762.75;1733863;82;21164;-63
2021/01/01 08:54:25;;;;;;;22.60;15.00;;;;;;;2.15;100.00;98771.70;1763406;81;21102;-62
2021/01/01 08:56:57;;;;;;;23.00;15.13;;;;;;;2.17;100.00;98769.97;1767379;81;21194;-63
2021/01/01 08:59:26;;;;;;;28.12;16.30;;;;;;;2.23;100.00;98773.77;1733904;82;21509;-62
2021/01/01 09:01:54;;;;;;;27.67;17.52;;;;;;;2.29;100.00;98772.02;1767345;81;21103;-63
2021/01/01 09:04:28;;;;;;;29.10;18.15;;;;;;;2.29;100.00;98776.71;1733753;82;21073;-62
2021/01/01 09:07:00;;;;;;;27.93;16.50;;;;;;;2.33;100.00;98779.64;1767440;81;21044;-63
2021/01/01 09:09:31;;;;;;;26.75;17.23;;;;;;;2.38;100.00;98783.02;1734026;82;22261;-62
2021/01/01 09:12:13;;;;;;;28.70;17.32;;;;;;;2.40;100.00;98780.44;1767336;81;21111;-62
2021/01/01 09:14:51;;;;;;;24.27;15.45;;;;;;;2.42;100.00;98787.27;1767443;81;21103;-62
2021/01/01 09:17:22;;;;;;;24.12;15.08;;;;;;;2.40;100.00;98786.41;1733864;82;21133;-62
2021/01/01 09:20:07;;;;;;;22.90;14.63;;;;;;;2.39;100.00;98782.16;1767201;81;21994;-62
2021/01/01 09:22:37;;;;;;;25.85;15.25;;;;;;;2.39;100.00;98791.13;1733889;82;21460;-62
2021/01/01 09:25:22;;;;;;;22.65;14.53;;;;;;;2.40;100.00;98793.27;1767231;81;21075;-62
2021/01/01 09:27:52;;;;;;;23.98;14.73;;;;;;;2.41;100.00;98789.83;1767628;81;21088;-62
2021/01/01 09:30:24;;;;;;;22.42;14.33;;;;;;;2.39;100.00;98796.27;1768595;81;21091;-62
2021/01/01 09:32:58;;;;;;;24.67;14.70;;;;;;;2.41;100.00;98792.39;1738444;82;21505;-62
2021/01/01 09:35:26;;;;;;;21.85;14.33;;;;;;;2.45;100.00;98794.92;1705751;84;21403;-63
2021/01/01 09:37:57;;;;;;;24.37;14.85;;;;;;;2.46;100.00;98792.77;1738440;82;21565;-64
2021/01/01 09:40:28;;;;;;;22.60;14.63;;;;;;;2.51;100.00;98803.00;1705392;84;21245;-62
2021/01/01 09:42:59;;;;;;;20.43;13.90;;;;;;;2.51;99.77;98806.84;1705682;84;21074;-61
2021/01/01 09:45:27;;;;;;;22.62;14.98;;;;;;;2.51;99.56;98800.44;1678516;84;21586;-62
2021/01/01 09:47:55;;;;;;;26.10;16.45;;;;;;;2.50;99.47;98809.00;1738317;82;21450;-62
2021/01/01 09:50:23;;;;;;;20.68;14.23;;;;;;;2.51;99.62;98801.72;1705660;84;22016;-61
2021/01/01 09:52:50;;;;;;;21.33;14.25;;;;;;;2.55;99.59;98805.09;1767474;81;21103;-61
2021/01/01 09:55:19;;;;;;;25.35;15.50;;;;;;;2.57;99.40;98805.91;1767445;81;21142;-62
2021/01/01 09:57:48;;;;;;;25.05;15.48;;;;;;;2.59;99.15;98807.62;1767554;81;21869;-61
2021/01/01 10:00:17;;;;;;;29.12;17.75;;;;;;;2.59;99.26;98810.18;1738547;82;21210;-61
2021/01/01 10:02:45;;;;;;;31.23;19.42;;;;;;;2.63;99.37;98808.42;1738575;82;21096;-62
2021/01/01 10:05:13;;;;;;;25.35;15.55;;;;;;;2.67;99.40;98812.67;1705649;84;21086;-61
2021/01/01 10:07:41;;;;;;;23.65;14.55;;;;;;;2.70;99.30;98807.48;1767318;81;21091;-62
2021/01/01 10:10:11;;;;;;;28.92;17.05;;;;;;;2.70;99.08;98804.92;1738527;82;21136;-62
2021/01/01 10:12:38;;;;;;;29.63;18.10;;;;;;;2.69;98.77;98804.51;1705980;84;21380;-61
2021/01/01 10:15:08;;;;;;;27.45;17.15;;;;;;;2.68;98.74;98804.09;1705649;84;21118;-61
2021/01/01 10:17:35;;;;;;;26.95;15.60;;;;;;;2.65;98.48;98808.84;1705992;84;21110;-61
2021/01/01 10:20:06;;;;;;;24.55;15.98;;;;;;;2.62;98.46;98815.27;1767335;81;21047;-62
2021/01/01 10:22:34;;;;;;;25.25;16.23;;;;;;;2.59;98.36;98814.47;1767519;81;21043;-62
2021/01/01 10:25:03;;;;;;;27.60;16.27;;;;;;;2.57;98.29;98818.74;1767511;81;22049;-62
2021/01/01 10:27:31;;;;;;;28.20;17.17;;;;;;;2.53;98.13;98819.22;1738614;82;21144;-63
2021/01/01 10:29:59;;;;;;;21.12;14.13;;;;;;;2.48;98.20;98817.97;1738604;82;21155;-64
2021/01/01 10:32:27;;;;;;;24.45;14.83;;;;;;;2.44;98.03;98821.45;1692925;83;21215;-62
2021/01/01 10:34:55;;;;;;;23.52;13.88;;;;;;;2.37;97.83;98818.95;1692789;84;21084;-63
2021/01/01 10:37:23;;;;;;;22.60;14.95;;;;;;;2.30;97.97;98814.75;1692844;84;21209;-62
2021/01/01 10:39:51;;;;;;;24.60;15.48;;;;;;;2.28;98.25;98819.89;1692841;84;21125;-63
2021/01/01 10:42:19;;;;;;;26.55;16.82;;;;;;;2.31;98.56;98822.42;1692850;84;21145;-63
2021/01/01 10:44:47;;;;;;;26.25;16.42;;;;;;;2.34;98.80;98821.09;1692625;84;21182;-62
2021/01/01 10:47:15;;;;;;;23.38;14.68;;;;;;;2.36;98.60;98823.67;1692738;84;21091;-62
2021/01/01 10:49:45;;;;;;;23.62;14.07;;;;;;;2.35;98.46;98820.69;1692785;84;21427;-62
2021/01/01 10:52:13;;;;;;;23.40;15.83;;;;;;;2.35;98.49;98823.27;1692580;84;21104;-62
2021/01/01 10:54:41;;;;;;;25.90;16.57;;;;;;;2.34;98.38;98828.80;1692748;84;21149;-62
2021/01/01 10:57:09;;;;;;;24.45;15.13;;;;;;;2.33;98.53;98821.11;1692758;84;21199;-63
2021/01/01 10:59:37;;;;;;;25.23;15.48;;;;;;;2.35;98.76;98824.55;1692816;84;21092;-62
2021/01/01 11:02:05;;;;;;;23.18;15.45;;;;;;;2.37;98.80;98822.37;1692599;84;21218;-62
2021/01/01 11:04:33;;;;;;;23.67;14.73;;;;;;;2.40;98.61;98823.61;1692809;84;21116;-62
2021/01/01 11:07:02;;;;;;;28.17;17.67;;;;;;;2.41;98.37;98825.30;1692604;84;21147;-63
2021/01/01 11:09:32;;;;;;;25.57;15.80;;;;;;;2.40;98.46;98826.17;1692867;84;21517;-63
2021/01/01 11:11:59;;;;;;;22.25;15.43;;;;;;;2.43;98.35;98834.30;1692620;84;21136;-65
2021/01/01 11:14:46;;;;;;;21.23;15.05;;;;;;;2.42;98.36;98828.75;1692782;84;21730;-63
2021/01/01 12:23:43;;;;;;;16.85;12.95;;;;;;;2.69;95.73;98879.78;1673566;84;21387;-62
2021/01/01 12:26:04;;;;;;;14.13;12.43;;;;;;;2.68;95.57;98881.09;1762883;81;21071;-65
2021/01/01 12:28:33;;;;;;;29.92;22.75;;;;;;;2.67;95.51;98884.52;1764020;81;21059;-63
2021/01/01 12:31:02;;;;;;;19.60;14.75;;;;;;;2.68;95.53;98889.63;1703741;82;21633;-62
2021/01/01 12:33:31;;;;;;;17.65;13.08;;;;;;;2.70;95.19;98895.59;1702329;84;21203;-63
2021/01/01 12:35:58;;;;;;;17.77;14.78;;;;;;;2.71;94.90;98890.03;1727165;81;21379;-62
2021/01/01 12:38:27;;;;;;;16.65;12.63;;;;;;;2.72;94.73;98894.29;1732908;82;21148;-62
2021/01/01 12:40:54;;;;;;;17.40;15.05;;;;;;;2.72;94.88;98899.42;1755899;81;21096;-63
2021/01/01 12:43:22;;;;;;;18.77;15.90;;;;;;;2.75;94.59;98910.97;1731921;82;21102;-63
2021/01/01 12:45:50;;;;;;;17.37;14.03;;;;;;;2.73;94.43;98916.55;1755904;81;21155;-63
2021/01/01 12:48:20;;;;;;;22.82;18.67;;;;;;;2.74;94.41;98918.25;1732069;82;21360;-63
2021/01/01 12:50:48;;;;;;;20.10;13.50;;;;;;;2.74;94.60;98916.97;1755836;81;21150;-63